createdAt,value
2022-08-02T00:00:35.131Z,68.96
2022-08-02T00:03:02.967Z,69.13
2022-08-02T00:05:32.187Z,68.98
2022-08-02T00:08:00.039Z,69.53
2022-08-02T00:10:28.064Z,69.75
2022-08-02T00:12:55.944Z,69.91
2022-08-02T00:15:23.828Z,69.94
2022-08-02T00:17:51.636Z,69.77
2022-08-02T00:20:19.865Z,70.04
2022-08-02T00:22:49.092Z,70.26
2022-08-02T00:25:16.889Z,70.24
2022-08-02T00:27:44.693Z,70.55
2022-08-02T00:30:13.346Z,70.61
2022-08-02T00:32:41.106Z,70.52
2022-08-02T00:35:09.975Z,70.46
2022-08-02T00:37:40.440Z,70.39
2022-08-02T00:40:11.700Z,70.73
2022-08-02T00:42:40.101Z,70.27
2022-08-02T00:45:08.859Z,70.26
2022-08-02T00:47:36.654Z,70.55
2022-08-02T00:50:05.157Z,70.86
2022-08-02T00:52:33.063Z,70.89
2022-08-02T00:55:00.890Z,71.00
2022-08-02T00:57:30.117Z,70.50
2022-08-02T00:59:57.942Z,70.44
2022-08-02T01:02:25.775Z,70.61
2022-08-02T01:04:53.612Z,70.85
2022-08-02T01:07:21.773Z,70.50
2022-08-02T01:09:49.566Z,70.44
2022-08-02T01:12:17.736Z,70.45
2022-08-02T01:14:49.569Z,70.68
2022-08-02T01:17:21.525Z,70.85
2022-08-02T01:19:56.623Z,70.54
2022-08-02T01:23:03.041Z,70.52
2022-08-02T01:25:51.610Z,70.82
2022-08-02T01:28:39.981Z,70.33
2022-08-02T01:31:15.672Z,70.16
2022-08-02T01:33:48.722Z,69.87
2022-08-02T01:36:19.962Z,70.06
2022-08-02T01:38:50.653Z,70.08
2022-08-02T01:41:20.864Z,70.28
2022-08-02T01:43:54.919Z,70.14
2022-08-02T01:46:24.236Z,69.94
2022-08-02T01:48:54.562Z,69.89
2022-08-02T01:51:44.073Z,70.08
2022-08-02T01:54:18.702Z,70.04
2022-08-02T01:56:49.013Z,70.23
2022-08-02T01:59:22.856Z,70.24
2022-08-02T02:01:55.207Z,70.21
2022-08-02T02:04:23.631Z,70.23
2022-08-02T02:06:52.563Z,70.33
2022-08-02T02:09:22.500Z,70.91
2022-08-02T02:12:06.353Z,70.87
2022-08-02T02:14:51.734Z,70.71
2022-08-02T02:17:50.689Z,71.15
2022-08-02T02:20:14.212Z,71.28
2022-08-02T02:22:42.141Z,71.69
2022-08-02T02:25:11.611Z,71.71
2022-08-02T02:27:44.266Z,71.48
2022-08-02T02:30:14.669Z,71.47
2022-08-02T02:32:45.336Z,71.40
2022-08-02T02:35:17.653Z,71.46
2022-08-02T02:37:49.105Z,71.87
2022-08-02T02:40:19.169Z,71.84
2022-08-02T02:42:49.480Z,71.93
2022-08-02T02:45:21.526Z,72.08
2022-08-02T02:47:50.893Z,72.30
2022-08-02T02:50:20.027Z,72.36
2022-08-02T02:52:49.351Z,72.40
2022-08-02T02:55:19.050Z,72.36
2022-08-02T02:57:47.673Z,72.49
2022-08-02T03:00:16.481Z,72.56
2022-08-02T03:02:46.974Z,72.92
2022-08-02T03:05:15.850Z,72.80
2022-08-02T03:07:43.706Z,73.29
2022-08-02T03:10:12.248Z,73.54
2022-08-02T03:12:40.302Z,73.53
2022-08-02T03:15:11.478Z,73.77
2022-08-02T03:17:43.609Z,73.52
2022-08-02T03:20:15.412Z,73.80
2022-08-02T03:22:43.743Z,74.17
2022-08-02T03:25:12.412Z,73.81
2022-08-02T03:27:40.578Z,73.94
2022-08-02T03:30:10.308Z,73.92
2022-08-02T03:32:40.057Z,74.11
2022-08-02T03:35:10.441Z,74.11
2022-08-02T03:37:41.472Z,74.42
2022-08-02T03:40:14.217Z,74.26
2022-08-02T03:42:42.899Z,74.43
2022-08-02T03:45:13.356Z,74.81
2022-08-02T03:47:41.974Z,74.54
2022-08-02T03:50:13.315Z,74.72
2022-08-02T03:52:45.253Z,74.66
2022-08-02T03:55:14.382Z,74.82
2022-08-02T03:57:43.738Z,74.69
2022-08-02T04:00:14.203Z,74.88
2022-08-02T04:02:41.966Z,74.78
2022-08-02T04:05:10.038Z,74.83
2022-08-02T04:08:32.598Z,74.75
2022-08-02T04:10:27.198Z,74.65
2022-08-02T04:12:55.624Z,75.02
2022-08-02T04:15:25.046Z,74.81
2022-08-02T04:17:57.605Z,74.87
2022-08-02T04:20:28.968Z,74.89
2022-08-02T04:23:07.636Z,74.96
2022-08-02T04:25:40.165Z,75.07
2022-08-02T04:28:17.511Z,75.39
2022-08-02T04:30:47.408Z,75.32
2022-08-02T04:33:15.772Z,75.07
2022-08-02T04:35:43.832Z,75.24
2022-08-02T04:38:13.497Z,75.64
2022-08-02T04:40:50.844Z,75.40
2022-08-02T04:43:20.031Z,75.51
2022-08-02T04:45:49.503Z,75.67
2022-08-02T04:48:17.373Z,75.64
2022-08-02T04:50:45.280Z,75.80
2022-08-02T04:53:13.184Z,75.71
2022-08-02T04:55:42.314Z,75.96
2022-08-02T04:58:38.277Z,75.85
2022-08-02T05:00:58.128Z,75.94
2022-08-02T05:03:25.934Z,75.81
2022-08-02T05:05:53.751Z,76.00
2022-08-02T05:08:21.543Z,76.00
2022-08-02T05:10:50.725Z,75.66
2022-08-02T05:13:18.487Z,75.51
2022-08-02T05:15:49.107Z,75.76
2022-08-02T05:18:17.010Z,75.82
2022-08-02T05:20:47.409Z,75.55
2022-08-02T05:23:15.261Z,75.12
2022-08-02T05:25:43.015Z,74.69
2022-08-02T05:28:12.308Z,73.91
2022-08-02T05:30:40.454Z,73.63
2022-08-02T05:33:08.750Z,73.45
2022-08-02T05:35:36.695Z,73.16
2022-08-02T05:38:04.655Z,73.10
2022-08-02T05:40:54.490Z,72.90
2022-08-02T05:43:24.359Z,72.93
2022-08-02T05:45:53.616Z,73.13
2022-08-02T05:48:22.160Z,73.04
2022-08-02T05:50:55.810Z,73.11
2022-08-02T05:53:36.386Z,73.28
2022-08-02T05:56:14.211Z,73.35
2022-08-02T05:58:51.197Z,73.70
2022-08-02T06:01:28.691Z,73.50
2022-08-02T06:03:58.946Z,73.36
2022-08-02T06:06:27.640Z,73.40
2022-08-02T06:09:00.544Z,73.28
2022-08-02T06:11:36.687Z,73.10
2022-08-02T06:14:07.343Z,73.34
2022-08-02T06:16:36.857Z,73.36
2022-08-02T06:19:10.869Z,72.98
2022-08-02T06:22:31.191Z,72.74
2022-08-02T06:24:31.587Z,72.34
2022-08-02T06:27:00.730Z,72.43
2022-08-02T06:29:38.347Z,72.29
2022-08-02T06:32:08.991Z,71.75
2022-08-02T06:34:38.483Z,71.04
2022-08-02T06:37:14.145Z,70.85
2022-08-02T06:39:48.746Z,70.31
2022-08-02T06:42:26.944Z,69.87
2022-08-02T06:44:58.064Z,70.16
2022-08-02T06:47:26.448Z,70.00
2022-08-02T06:49:55.064Z,69.37
2022-08-02T06:52:29.236Z,69.51
2022-08-02T06:54:58.326Z,69.41
2022-08-02T06:57:26.428Z,69.01
2022-08-02T06:59:54.316Z,68.59
2022-08-02T07:02:23.674Z,68.31
2022-08-02T07:04:52.083Z,67.91
2022-08-02T07:07:20.086Z,66.88
2022-08-02T07:10:00.708Z,66.82
2022-08-02T07:12:31.070Z,66.07
2022-08-02T07:14:59.378Z,66.11
2022-08-02T07:17:28.755Z,65.77
2022-08-02T07:19:56.741Z,65.51
2022-08-02T07:22:26.889Z,65.41
2022-08-02T07:24:55.809Z,64.88
2022-08-02T07:27:24.012Z,65.16
2022-08-02T07:29:52.217Z,64.32
2022-08-02T07:32:22.559Z,63.40
2022-08-02T07:34:53.027Z,63.48
2022-08-02T07:37:36.081Z,63.12
2022-08-02T07:40:14.639Z,63.61
2022-08-02T07:42:43.449Z,63.30
2022-08-02T07:45:12.694Z,62.79
2022-08-02T07:47:41.286Z,62.55
2022-08-02T07:50:12.184Z,63.10
2022-08-02T07:52:40.805Z,61.96
2022-08-02T07:55:09.901Z,61.84
2022-08-02T07:57:41.239Z,61.46
2022-08-02T08:00:12.864Z,60.62
2022-08-02T08:02:40.860Z,60.30
2022-08-02T08:05:10.846Z,59.83
2022-08-02T08:07:39.008Z,58.69
2022-08-02T08:10:08.375Z,58.83
2022-08-02T08:12:36.453Z,58.01
2022-08-02T08:15:04.621Z,57.43
2022-08-02T08:17:32.632Z,57.96
2022-08-02T08:20:00.505Z,57.36
2022-08-02T08:22:29.644Z,57.58
2022-08-02T08:24:57.658Z,57.22
2022-08-02T08:27:25.804Z,57.13
2022-08-02T08:29:53.630Z,57.17
2022-08-02T08:32:21.827Z,57.02
2022-08-02T08:34:51.265Z,56.69
2022-08-02T08:37:19.386Z,56.57
2022-08-02T08:39:56.586Z,56.77
2022-08-02T08:42:26.837Z,56.92
2022-08-02T08:44:56.012Z,56.74
2022-08-02T08:47:25.069Z,56.15
2022-08-02T08:49:56.001Z,56.64
2022-08-02T08:52:27.816Z,55.63
2022-08-02T08:54:59.255Z,55.73
2022-08-02T08:57:30.666Z,56.06
2022-08-02T08:59:58.533Z,55.84
2022-08-02T09:02:28.506Z,55.12
2022-08-02T09:04:56.873Z,55.52
2022-08-02T09:07:24.832Z,55.27
2022-08-02T09:09:52.644Z,55.63
2022-08-02T09:12:24.946Z,54.77
2022-08-02T09:14:52.999Z,54.84
2022-08-02T09:17:22.012Z,54.80
2022-08-02T09:20:08.190Z,54.04
2022-08-02T09:22:35.943Z,53.83
2022-08-02T09:25:03.728Z,54.00
2022-08-02T09:27:38.075Z,53.20
2022-08-02T09:30:14.347Z,53.79
2022-08-02T09:32:47.828Z,53.17
2022-08-02T09:36:07.022Z,53.44
2022-08-02T09:38:19.881Z,53.39
2022-08-02T09:40:47.733Z,53.52
2022-08-02T09:43:17.483Z,53.07
2022-08-02T09:45:47.016Z,52.88
2022-08-02T09:48:14.734Z,52.87
2022-08-02T09:50:42.897Z,52.33
2022-08-02T09:53:13.915Z,52.42
2022-08-02T09:55:42.522Z,52.05
2022-08-02T09:58:22.200Z,52.24
2022-08-02T10:00:54.627Z,52.41
2022-08-02T10:03:22.989Z,52.06
2022-08-02T10:06:02.107Z,51.37
2022-08-02T10:08:33.040Z,51.77
2022-08-02T10:11:02.482Z,51.92
2022-08-02T10:13:35.540Z,51.84
2022-08-02T10:16:04.755Z,51.36
2022-08-02T10:18:41.113Z,51.17
2022-08-02T10:21:14.458Z,51.12
2022-08-02T10:23:44.829Z,50.81
2022-08-02T10:26:17.209Z,50.42
2022-08-02T10:28:49.451Z,50.19
2022-08-02T10:31:21.812Z,49.99
2022-08-02T10:33:52.921Z,50.08
2022-08-02T10:36:23.596Z,50.50
2022-08-02T10:38:51.835Z,49.89
2022-08-02T10:41:45.334Z,49.12
2022-08-02T10:44:27.135Z,48.73
2022-08-02T10:47:22.234Z,48.91
2022-08-02T10:49:51.638Z,48.66
2022-08-02T10:52:19.781Z,48.60
2022-08-02T10:54:53.197Z,48.29
2022-08-02T10:57:26.093Z,47.17
2022-08-02T10:59:57.518Z,47.19
2022-08-02T11:02:37.957Z,46.15
2022-08-02T11:05:15.563Z,46.43
2022-08-02T11:07:47.622Z,45.89
2022-08-02T11:10:36.630Z,45.12
2022-08-02T11:13:09.274Z,44.66
2022-08-02T11:16:01.300Z,44.31
2022-08-02T11:19:08.286Z,43.35
2022-08-02T11:21:36.919Z,43.80
2022-08-02T11:24:27.442Z,43.88
2022-08-02T11:26:55.735Z,42.84
2022-08-02T11:29:32.382Z,42.79
2022-08-02T11:32:09.606Z,44.24
2022-08-02T11:34:40.095Z,44.79
2022-08-02T11:37:07.963Z,44.37
2022-08-02T11:39:35.773Z,44.40
2022-08-02T11:42:03.590Z,43.96
2022-08-02T11:44:40.356Z,43.36
2022-08-02T11:47:09.619Z,43.55
2022-08-02T11:49:43.569Z,43.45
2022-08-02T11:52:12.117Z,43.81
2022-08-02T11:54:43.349Z,43.05
2022-08-02T11:57:18.510Z,41.96
2022-08-02T11:59:49.356Z,42.34
2022-08-02T12:02:19.279Z,42.19
2022-08-02T12:04:54.616Z,42.35
2022-08-02T12:07:34.836Z,43.43
2022-08-02T12:10:07.580Z,43.59
2022-08-02T12:12:35.599Z,43.50
2022-08-02T12:15:03.393Z,43.56
2022-08-02T12:18:07.553Z,42.84
2022-08-02T12:20:39.257Z,43.05
2022-08-02T12:23:07.039Z,42.65
2022-08-02T12:25:35.480Z,42.65
2022-08-02T12:28:18.412Z,41.97
2022-08-02T12:30:53.986Z,41.70
2022-08-02T12:33:24.335Z,42.21
2022-08-02T12:35:52.531Z,41.95
2022-08-02T12:38:20.393Z,41.82
2022-08-02T12:40:48.772Z,42.07
2022-08-02T12:43:21.843Z,41.09
2022-08-02T12:45:51.542Z,41.31
2022-08-02T12:48:37.474Z,41.15
2022-08-02T12:51:23.733Z,41.63
2022-08-02T12:53:58.905Z,41.51
2022-08-02T12:56:29.426Z,41.67
2022-08-02T12:58:57.771Z,41.45
2022-08-02T13:01:27.902Z,41.53
2022-08-02T13:04:12.273Z,41.52
2022-08-02T13:06:44.793Z,41.68
2022-08-02T13:09:13.743Z,40.91
2022-08-02T13:11:43.005Z,41.16
2022-08-02T13:14:12.435Z,41.25
2022-08-02T13:16:40.892Z,40.70
2022-08-02T13:19:10.109Z,40.83
2022-08-02T13:22:02.831Z,40.66
2022-08-02T13:24:41.023Z,40.73
2022-08-02T13:27:20.816Z,39.67
2022-08-02T13:29:49.838Z,40.34
2022-08-02T13:32:17.975Z,40.63
2022-08-02T13:34:47.309Z,39.91
2022-08-02T13:37:16.073Z,40.11
2022-08-02T13:40:00.022Z,39.20
2022-08-02T13:42:32.241Z,40.31
2022-08-02T13:45:00.029Z,39.76
2022-08-02T13:47:36.661Z,39.86
2022-08-02T13:50:17.446Z,39.27
2022-08-02T13:52:45.381Z,39.63
2022-08-02T13:55:13.151Z,39.49
2022-08-02T13:57:41.405Z,39.70
2022-08-02T14:00:11.202Z,39.37
2022-08-02T14:02:40.585Z,38.71
2022-08-02T14:05:09.371Z,39.41
2022-08-02T14:07:39.019Z,39.32
2022-08-02T14:10:07.852Z,39.15
2022-08-02T14:12:35.643Z,38.82
2022-08-02T14:15:03.496Z,38.96
2022-08-02T14:17:31.311Z,39.03
2022-08-02T14:19:59.215Z,38.96
2022-08-02T14:22:28.718Z,38.91
2022-08-02T14:24:57.895Z,39.23
2022-08-02T14:27:39.329Z,39.46
2022-08-02T14:30:08.639Z,38.75
2022-08-02T14:32:36.482Z,39.04
2022-08-02T14:35:04.545Z,38.75
2022-08-02T14:37:32.800Z,38.60
2022-08-02T14:40:02.031Z,38.53
2022-08-02T14:42:29.856Z,38.06
2022-08-02T14:44:57.730Z,37.76
2022-08-02T14:47:25.634Z,38.07
2022-08-02T14:49:53.617Z,37.81
2022-08-02T14:52:21.471Z,37.58
2022-08-02T14:54:49.466Z,37.88
2022-08-02T14:57:18.789Z,38.30
2022-08-02T14:59:47.282Z,38.55
2022-08-02T15:02:15.515Z,37.78
2022-08-02T15:04:44.104Z,37.88
2022-08-02T15:07:12.951Z,37.23
2022-08-02T15:09:40.818Z,36.66
2022-08-02T15:12:09.699Z,37.30
2022-08-02T15:14:39.399Z,37.73
2022-08-02T15:17:07.781Z,37.65
2022-08-02T15:20:00.127Z,37.70
2022-08-02T15:22:23.756Z,36.60
2022-08-02T15:24:51.981Z,37.40
2022-08-02T15:27:19.791Z,36.35
2022-08-02T15:29:48.974Z,36.39
2022-08-02T15:32:18.835Z,36.10
2022-08-02T15:34:48.884Z,36.65
2022-08-02T15:37:16.812Z,36.56
2022-08-02T15:39:44.751Z,36.71
2022-08-02T15:42:13.492Z,36.13
2022-08-02T15:44:41.645Z,36.56
2022-08-02T15:47:10.898Z,36.14
2022-08-02T15:49:41.485Z,36.32
2022-08-02T15:52:10.384Z,36.95
2022-08-02T15:54:57.130Z,37.00
2022-08-02T15:57:37.486Z,37.20
2022-08-02T16:00:15.704Z,36.57
2022-08-02T16:02:48.472Z,36.96
2022-08-02T16:05:17.949Z,37.12
2022-08-02T16:07:46.617Z,36.96
2022-08-02T16:10:15.110Z,37.26
2022-08-02T16:12:43.189Z,37.31
2022-08-02T16:15:12.633Z,37.38
2022-08-02T16:17:53.737Z,37.40
2022-08-02T16:20:23.595Z,36.79
2022-08-02T16:22:51.444Z,37.12
2022-08-02T16:25:19.323Z,37.03
2022-08-02T16:28:06.245Z,37.43
2022-08-02T16:30:35.327Z,37.64
2022-08-02T16:33:03.595Z,37.49
2022-08-02T16:35:34.799Z,37.50
2022-08-02T16:38:02.695Z,37.43
2022-08-02T16:40:30.728Z,37.60
2022-08-02T16:42:58.671Z,37.61
2022-08-02T16:45:28.456Z,37.60
2022-08-02T16:48:03.567Z,37.60
2022-08-02T16:50:35.507Z,38.15
2022-08-02T16:53:07.411Z,38.01
2022-08-02T16:55:35.931Z,38.09
2022-08-02T16:58:03.919Z,38.20
2022-08-02T17:00:38.009Z,38.10
2022-08-02T17:03:13.460Z,38.14
2022-08-02T17:05:56.835Z,38.41
2022-08-02T17:08:32.060Z,38.12
2022-08-02T17:11:03.596Z,37.75
2022-08-02T17:13:34.446Z,38.20
2022-08-02T17:16:25.782Z,38.07
2022-08-02T17:18:54.765Z,37.72
2022-08-02T17:21:24.032Z,38.21
2022-08-02T17:24:04.887Z,38.21
2022-08-02T17:26:34.496Z,38.34
2022-08-02T17:29:14.256Z,38.16
2022-08-02T17:31:46.540Z,38.51
2022-08-02T17:34:32.560Z,38.35
2022-08-02T17:37:06.139Z,38.41
2022-08-02T17:39:43.933Z,38.33
2022-08-02T17:42:20.088Z,38.26
2022-08-02T17:44:50.866Z,38.56
2022-08-02T17:47:19.426Z,39.00
2022-08-02T17:49:48.986Z,38.92
2022-08-02T17:52:51.701Z,38.94
2022-08-02T17:55:07.643Z,39.05
2022-08-02T17:57:57.619Z,39.25
2022-08-02T18:00:24.755Z,38.96
2022-08-02T18:02:55.426Z,39.02
2022-08-02T18:08:18.337Z,39.44
2022-08-02T18:10:51.093Z,39.31
2022-08-02T18:13:19.010Z,39.78
2022-08-02T18:15:47.575Z,39.63
2022-08-02T18:18:19.258Z,39.90
2022-08-02T18:20:57.471Z,39.98
2022-08-02T18:23:26.909Z,39.98
2022-08-02T18:25:55.771Z,40.33
2022-08-02T18:28:30.986Z,40.34
2022-08-02T18:31:22.586Z,40.63
2022-08-02T18:33:59.320Z,40.83
2022-08-02T18:36:47.270Z,40.65
2022-08-02T18:39:17.041Z,40.94
2022-08-02T18:41:47.773Z,40.92
2022-08-02T18:44:16.627Z,41.31
2022-08-02T18:46:44.628Z,41.58
2022-08-02T18:49:14.638Z,41.44
2022-08-02T18:51:44.178Z,41.78
2022-08-02T18:54:12.092Z,41.80
2022-08-02T18:56:47.417Z,41.97
2022-08-02T18:59:16.095Z,42.17
2022-08-02T19:01:51.043Z,42.38
2022-08-02T19:04:26.942Z,42.66
2022-08-02T19:06:55.973Z,42.50
2022-08-02T19:09:23.957Z,42.63
2022-08-02T19:11:55.266Z,42.77
2022-08-02T19:14:27.863Z,43.22
2022-08-02T19:16:58.069Z,43.49
2022-08-02T19:19:28.983Z,43.61
2022-08-02T19:22:15.741Z,44.04
2022-08-02T19:24:47.126Z,44.07
2022-08-02T19:27:25.627Z,44.63
2022-08-02T19:29:59.078Z,44.81
2022-08-02T19:32:41.946Z,45.17
2022-08-02T19:35:30.611Z,45.07
2022-08-02T19:38:09.342Z,45.57
2022-08-02T19:40:42.251Z,45.73
2022-08-02T19:44:26.076Z,45.62
2022-08-02T19:46:00.932Z,46.27
2022-08-02T19:48:29.136Z,46.32
2022-08-02T19:51:00.507Z,46.46
2022-08-02T19:53:47.859Z,46.74
2022-08-02T19:56:20.846Z,47.14
2022-08-02T19:58:55.067Z,47.47
2022-08-02T20:01:36.762Z,47.54
2022-08-02T20:04:13.524Z,47.78
2022-08-02T20:06:47.805Z,48.10
2022-08-02T20:09:23.161Z,48.44
2022-08-02T20:11:54.478Z,48.49
2022-08-02T20:14:27.622Z,48.50
2022-08-02T20:16:56.845Z,48.53
2022-08-02T20:19:25.371Z,48.89
2022-08-02T20:21:59.776Z,49.13
2022-08-02T20:24:29.672Z,49.21
2022-08-02T20:26:59.346Z,49.51
2022-08-02T20:29:48.446Z,50.23
2022-08-02T20:32:22.719Z,50.44
2022-08-02T20:34:53.203Z,50.71
2022-08-02T20:38:00.170Z,50.82
2022-08-02T20:40:17.061Z,50.85
2022-08-02T20:42:47.594Z,51.05
2022-08-02T20:45:18.528Z,51.24
2022-08-02T20:47:50.867Z,51.47
2022-08-02T20:50:36.827Z,51.29
2022-08-02T20:53:06.018Z,51.54
2022-08-02T20:55:34.092Z,51.61
2022-08-02T20:58:03.017Z,51.52
2022-08-02T21:00:32.812Z,51.61
2022-08-02T21:03:02.546Z,51.67
2022-08-02T21:05:55.226Z,51.60
2022-08-02T21:08:21.467Z,51.56
2022-08-02T21:10:51.783Z,51.62
2022-08-02T21:13:24.092Z,51.63
2022-08-02T21:15:55.473Z,51.67
2022-08-02T21:18:29.816Z,51.79
2022-08-02T21:21:09.413Z,51.97
2022-08-02T21:23:37.462Z,52.23
2022-08-02T21:26:06.634Z,52.48
2022-08-02T21:31:29.702Z,52.54
2022-08-02T21:34:00.347Z,52.84
2022-08-02T21:36:58.463Z,52.88
2022-08-02T21:39:26.321Z,53.19
2022-08-02T21:42:00.214Z,53.16
2022-08-02T21:44:28.157Z,53.55
2022-08-02T21:46:58.700Z,53.73
2022-08-02T21:50:08.462Z,54.23
2022-08-02T21:52:17.193Z,54.73
2022-08-02T21:54:45.889Z,54.83
2022-08-02T21:57:16.571Z,54.79
2022-08-02T21:59:45.914Z,54.97
2022-08-02T22:02:16.511Z,55.17
2022-08-02T22:04:47.608Z,55.27
2022-08-02T22:07:17.084Z,55.40
2022-08-02T22:09:48.259Z,55.86
2022-08-02T22:12:19.125Z,56.24
2022-08-02T22:14:53.965Z,56.20
2022-08-02T22:17:53.026Z,56.52
2022-08-02T22:20:22.357Z,56.93
2022-08-02T22:22:52.234Z,57.10
2022-08-02T22:25:27.154Z,57.20
2022-08-02T22:28:35.715Z,57.36
2022-08-02T22:30:53.766Z,57.75
2022-08-02T22:33:42.110Z,58.16
2022-08-02T22:36:11.569Z,58.10
2022-08-02T22:38:44.660Z,58.18
2022-08-02T22:41:13.511Z,58.43
2022-08-02T22:43:41.720Z,58.48
2022-08-02T22:46:09.907Z,58.53
2022-08-02T22:48:45.719Z,58.76
2022-08-02T22:51:13.939Z,59.04
2022-08-02T22:53:42.215Z,59.20
2022-08-02T22:56:10.607Z,59.21
2022-08-02T22:58:43.166Z,39.02
2022-08-02T23:01:26.563Z,59.49
2022-08-02T23:03:55.773Z,59.38
2022-08-02T23:06:23.630Z,59.69
2022-08-02T23:08:51.580Z,59.96
2022-08-02T23:11:19.390Z,60.20
2022-08-02T23:13:47.143Z,60.06
2022-08-02T23:16:37.708Z,60.00
2022-08-02T23:19:24.801Z,60.51
2022-08-02T23:22:02.749Z,60.36
2022-08-02T23:24:33.080Z,60.68
2022-08-02T23:27:01.477Z,61.01
2022-08-02T23:29:29.310Z,61.09
2022-08-02T23:31:57.343Z,61.11
2022-08-02T23:34:28.405Z,61.24
2022-08-02T23:36:56.237Z,61.26
2022-08-02T23:39:24.138Z,61.72
2022-08-02T23:41:55.176Z,61.66
2022-08-02T23:44:23.845Z,61.85
2022-08-02T23:46:52.212Z,61.46
2022-08-02T23:49:20.408Z,61.63
2022-08-02T23:51:50.788Z,61.64
2022-08-02T23:54:19.214Z,61.69
2022-08-02T23:56:47.648Z,61.34
2022-08-02T23:59:15.598Z,61.33
